sensor_id;sensor_type;location;lat;lon;timestamp;P1;durP1;ratioP1;P2;durP2;ratioP2
42988;SDS011;28622;43.716;20.668;2023-03-19T00:02:11;13.73;;;6.72;;
42988;SDS011;28622;43.716;20.668;2023-03-19T00:04:37;10.48;;;5.20;;
42988;SDS011;28622;43.716;20.668;2023-03-19T00:07:03;11.93;;;6.60;;
42988;SDS011;28622;43.716;20.668;2023-03-19T00:09:29;14.18;;;6.15;;
42988;SDS011;28622;43.716;20.668;2023-03-19T00:11:54;18.88;;;8.50;;
42988;SDS011;28622;43.716;20.668;2023-03-19T00:14:20;21.60;;;10.43;;
42988;SDS011;28622;43.716;20.668;2023-03-19T00:16:46;39.50;;;15.45;;
42988;SDS011;28622;43.716;20.668;2023-03-19T00:19:12;33.47;;;13.30;;
42988;SDS011;28622;43.716;20.668;2023-03-19T00:21:38;18.10;;;7.10;;
42988;SDS011;28622;43.716;20.668;2023-03-19T00:24:05;14.48;;;6.75;;
42988;SDS011;28622;43.716;20.668;2023-03-19T00:26:32;44.42;;;21.13;;
42988;SDS011;28622;43.716;20.668;2023-03-19T00:28:59;18.08;;;9.18;;
42988;SDS011;28622;43.716;20.668;2023-03-19T00:31:25;10.85;;;5.05;;
42988;SDS011;28622;43.716;20.668;2023-03-19T00:33:53;15.07;;;6.15;;
42988;SDS011;28622;43.716;20.668;2023-03-19T00:36:21;19.83;;;6.10;;
42988;SDS011;28622;43.716;20.668;2023-03-19T00:38:47;44.88;;;21.02;;
42988;SDS011;28622;43.716;20.668;2023-03-19T00:41:13;25.40;;;10.13;;
42988;SDS011;28622;43.716;20.668;2023-03-19T00:43:41;17.85;;;8.85;;
42988;SDS011;28622;43.716;20.668;2023-03-19T00:46:07;19.40;;;11.30;;
42988;SDS011;28622;43.716;20.668;2023-03-19T00:48:32;17.42;;;11.55;;
42988;SDS011;28622;43.716;20.668;2023-03-19T00:51:05;14.85;;;7.03;;
42988;SDS011;28622;43.716;20.668;2023-03-19T00:53:35;15.52;;;6.93;;
42988;SDS011;28622;43.716;20.668;2023-03-19T00:56:06;12.18;;;5.90;;
42988;SDS011;28622;43.716;20.668;2023-03-19T00:58:33;18.80;;;6.13;;
42988;SDS011;28622;43.716;20.668;2023-03-19T01:00:59;14.40;;;7.20;;
42988;SDS011;28622;43.716;20.668;2023-03-19T01:03:26;12.40;;;5.43;;
42988;SDS011;28622;43.716;20.668;2023-03-19T01:05:52;15.57;;;7.55;;
42988;SDS011;28622;43.716;20.668;2023-03-19T01:08:18;16.90;;;8.00;;
42988;SDS011;28622;43.716;20.668;2023-03-19T01:10:44;11.75;;;6.40;;
42988;SDS011;28622;43.716;20.668;2023-03-19T01:13:10;15.43;;;6.88;;
42988;SDS011;28622;43.716;20.668;2023-03-19T01:15:37;17.27;;;6.40;;
42988;SDS011;28622;43.716;20.668;2023-03-19T01:18:05;15.70;;;6.22;;
42988;SDS011;28622;43.716;20.668;2023-03-19T01:20:32;9.57;;;4.38;;
42988;SDS011;28622;43.716;20.668;2023-03-19T01:22:58;6.43;;;3.65;;
42988;SDS011;28622;43.716;20.668;2023-03-19T01:25:25;6.25;;;4.07;;
42988;SDS011;28622;43.716;20.668;2023-03-19T01:27:51;8.15;;;4.88;;
42988;SDS011;28622;43.716;20.668;2023-03-19T01:30:17;11.35;;;5.68;;
42988;SDS011;28622;43.716;20.668;2023-03-19T01:32:43;10.80;;;4.50;;
42988;SDS011;28622;43.716;20.668;2023-03-19T01:35:08;12.55;;;5.43;;
42988;SDS011;28622;43.716;20.668;2023-03-19T01:37:35;14.13;;;5.05;;
42988;SDS011;28622;43.716;20.668;2023-03-19T01:40:02;12.27;;;5.47;;
42988;SDS011;28622;43.716;20.668;2023-03-19T01:42:30;13.13;;;6.68;;
42988;SDS011;28622;43.716;20.668;2023-03-19T01:44:56;10.35;;;5.03;;
42988;SDS011;28622;43.716;20.668;2023-03-19T01:47:30;9.93;;;5.03;;
42988;SDS011;28622;43.716;20.668;2023-03-19T01:49:59;6.47;;;3.92;;
42988;SDS011;28622;43.716;20.668;2023-03-19T01:52:26;7.75;;;4.25;;
42988;SDS011;28622;43.716;20.668;2023-03-19T01:54:54;7.72;;;4.05;;
42988;SDS011;28622;43.716;20.668;2023-03-19T01:57:23;8.95;;;4.10;;
42988;SDS011;28622;43.716;20.668;2023-03-19T01:59:53;5.82;;;3.22;;
42988;SDS011;28622;43.716;20.668;2023-03-19T02:05:02;7.45;;;3.90;;
42988;SDS011;28622;43.716;20.668;2023-03-19T02:07:39;10.15;;;4.28;;
42988;SDS011;28622;43.716;20.668;2023-03-19T02:10:09;10.30;;;4.28;;
42988;SDS011;28622;43.716;20.668;2023-03-19T02:12:37;7.38;;;4.18;;
42988;SDS011;28622;43.716;20.668;2023-03-19T02:15:03;12.45;;;4.22;;
42988;SDS011;28622;43.716;20.668;2023-03-19T02:17:30;6.00;;;2.95;;
42988;SDS011;28622;43.716;20.668;2023-03-19T02:20:12;8.15;;;4.00;;
42988;SDS011;28622;43.716;20.668;2023-03-19T02:25:48;14.75;;;6.50;;
42988;SDS011;28622;43.716;20.668;2023-03-19T02:28:19;11.63;;;4.45;;
42988;SDS011;28622;43.716;20.668;2023-03-19T02:30:47;15.68;;;5.65;;
42988;SDS011;28622;43.716;20.668;2023-03-19T02:33:14;8.02;;;4.03;;
42988;SDS011;28622;43.716;20.668;2023-03-19T02:35:42;9.43;;;4.65;;
42988;SDS011;28622;43.716;20.668;2023-03-19T02:38:10;7.65;;;3.90;;
42988;SDS011;28622;43.716;20.668;2023-03-19T02:40:38;9.82;;;4.72;;
42988;SDS011;28622;43.716;20.668;2023-03-19T02:43:10;9.00;;;4.20;;
42988;SDS011;28622;43.716;20.668;2023-03-19T02:45:36;12.73;;;4.60;;
42988;SDS011;28622;43.716;20.668;2023-03-19T02:48:02;9.52;;;5.10;;
42988;SDS011;28622;43.716;20.668;2023-03-19T02:50:27;14.32;;;5.55;;
42988;SDS011;28622;43.716;20.668;2023-03-19T02:52:53;9.52;;;5.25;;
42988;SDS011;28622;43.716;20.668;2023-03-19T02:55:19;10.90;;;3.58;;
42988;SDS011;28622;43.716;20.668;2023-03-19T02:57:45;9.35;;;4.30;;
42988;SDS011;28622;43.716;20.668;2023-03-19T03:00:11;10.10;;;4.88;;
42988;SDS011;28622;43.716;20.668;2023-03-19T03:02:37;13.00;;;5.80;;
42988;SDS011;28622;43.716;20.668;2023-03-19T03:05:04;12.05;;;4.80;;
42988;SDS011;28622;43.716;20.668;2023-03-19T03:07:30;12.20;;;5.32;;
42988;SDS011;28622;43.716;20.668;2023-03-19T03:09:56;11.75;;;4.80;;
42988;SDS011;28622;43.716;20.668;2023-03-19T03:12:22;10.25;;;5.80;;
42988;SDS011;28622;43.716;20.668;2023-03-19T03:14:48;10.05;;;4.05;;
42988;SDS011;28622;43.716;20.668;2023-03-19T03:17:14;11.38;;;5.22;;
42988;SDS011;28622;43.716;20.668;2023-03-19T03:19:40;11.05;;;5.50;;
42988;SDS011;28622;43.716;20.668;2023-03-19T03:22:06;12.35;;;4.22;;
42988;SDS011;28622;43.716;20.668;2023-03-19T03:24:32;11.02;;;6.95;;
42988;SDS011;28622;43.716;20.668;2023-03-19T03:26:58;11.13;;;5.22;;
42988;SDS011;28622;43.716;20.668;2023-03-19T03:29:24;13.05;;;4.93;;
42988;SDS011;28622;43.716;20.668;2023-03-19T03:31:50;11.38;;;4.80;;
42988;SDS011;28622;43.716;20.668;2023-03-19T03:34:16;9.10;;;4.55;;
42988;SDS011;28622;43.716;20.668;2023-03-19T03:36:42;19.75;;;7.30;;
42988;SDS011;28622;43.716;20.668;2023-03-19T03:39:10;15.45;;;5.28;;
42988;SDS011;28622;43.716;20.668;2023-03-19T03:41:35;10.75;;;4.03;;
42988;SDS011;28622;43.716;20.668;2023-03-19T03:44:01;12.90;;;4.32;;
42988;SDS011;28622;43.716;20.668;2023-03-19T03:46:27;8.68;;;4.80;;
42988;SDS011;28622;43.716;20.668;2023-03-19T03:48:53;7.43;;;4.25;;
42988;SDS011;28622;43.716;20.668;2023-03-19T03:51:18;8.88;;;3.90;;
42988;SDS011;28622;43.716;20.668;2023-03-19T03:53:46;6.72;;;3.75;;
42988;SDS011;28622;43.716;20.668;2023-03-19T03:56:12;8.98;;;4.43;;
42988;SDS011;28622;43.716;20.668;2023-03-19T03:58:37;8.88;;;4.50;;
42988;SDS011;28622;43.716;20.668;2023-03-19T04:01:04;14.45;;;4.90;;
42988;SDS011;28622;43.716;20.668;2023-03-19T04:03:31;14.40;;;5.63;;
42988;SDS011;28622;43.716;20.668;2023-03-19T04:05:56;9.73;;;4.78;;
42988;SDS011;28622;43.716;20.668;2023-03-19T04:08:22;9.63;;;4.43;;
42988;SDS011;28622;43.716;20.668;2023-03-19T04:10:48;12.00;;;4.93;;
42988;SDS011;28622;43.716;20.668;2023-03-19T04:13:14;6.90;;;3.90;;
42988;SDS011;28622;43.716;20.668;2023-03-19T04:15:41;10.27;;;4.72;;
42988;SDS011;28622;43.716;20.668;2023-03-19T04:18:07;7.35;;;4.18;;
42988;SDS011;28622;43.716;20.668;2023-03-19T04:20:33;11.02;;;4.45;;
42988;SDS011;28622;43.716;20.668;2023-03-19T04:22:59;9.63;;;4.55;;
42988;SDS011;28622;43.716;20.668;2023-03-19T04:25:26;9.15;;;4.50;;
42988;SDS011;28622;43.716;20.668;2023-03-19T04:27:51;13.65;;;5.97;;
42988;SDS011;28622;43.716;20.668;2023-03-19T04:30:17;12.15;;;4.75;;
42988;SDS011;28622;43.716;20.668;2023-03-19T04:32:44;15.45;;;6.00;;
42988;SDS011;28622;43.716;20.668;2023-03-19T04:35:10;17.65;;;6.35;;
42988;SDS011;28622;43.716;20.668;2023-03-19T04:37:36;17.80;;;5.75;;
42988;SDS011;28622;43.716;20.668;2023-03-19T04:40:02;17.35;;;6.72;;
42988;SDS011;28622;43.716;20.668;2023-03-19T04:42:29;13.93;;;6.78;;
42988;SDS011;28622;43.716;20.668;2023-03-19T04:44:54;15.32;;;7.57;;
42988;SDS011;28622;43.716;20.668;2023-03-19T04:47:20;15.10;;;6.70;;
42988;SDS011;28622;43.716;20.668;2023-03-19T04:49:46;14.55;;;7.65;;
42988;SDS011;28622;43.716;20.668;2023-03-19T04:52:12;12.60;;;5.93;;
42988;SDS011;28622;43.716;20.668;2023-03-19T04:54:38;21.80;;;7.00;;
42988;SDS011;28622;43.716;20.668;2023-03-19T04:57:04;9.68;;;5.45;;
42988;SDS011;28622;43.716;20.668;2023-03-19T04:59:30;21.13;;;8.23;;
42988;SDS011;28622;43.716;20.668;2023-03-19T05:01:56;17.25;;;6.72;;
42988;SDS011;28622;43.716;20.668;2023-03-19T05:04:21;17.40;;;6.97;;
42988;SDS011;28622;43.716;20.668;2023-03-19T05:06:48;18.80;;;7.00;;
42988;SDS011;28622;43.716;20.668;2023-03-19T05:09:14;23.75;;;8.63;;
42988;SDS011;28622;43.716;20.668;2023-03-19T05:11:40;33.63;;;13.00;;
42988;SDS011;28622;43.716;20.668;2023-03-19T05:14:06;23.65;;;7.88;;
42988;SDS011;28622;43.716;20.668;2023-03-19T05:16:32;25.08;;;7.90;;
42988;SDS011;28622;43.716;20.668;2023-03-19T05:18:59;17.98;;;7.53;;
42988;SDS011;28622;43.716;20.668;2023-03-19T05:21:25;12.70;;;6.60;;
42988;SDS011;28622;43.716;20.668;2023-03-19T05:23:51;13.95;;;6.70;;
42988;SDS011;28622;43.716;20.668;2023-03-19T05:26:18;15.48;;;6.35;;
42988;SDS011;28622;43.716;20.668;2023-03-19T05:28:45;10.77;;;5.45;;
42988;SDS011;28622;43.716;20.668;2023-03-19T05:31:11;12.55;;;6.57;;
42988;SDS011;28622;43.716;20.668;2023-03-19T05:33:37;15.55;;;6.82;;
42988;SDS011;28622;43.716;20.668;2023-03-19T05:36:02;19.50;;;6.97;;
42988;SDS011;28622;43.716;20.668;2023-03-19T05:38:28;17.15;;;7.53;;
42988;SDS011;28622;43.716;20.668;2023-03-19T05:40:54;21.55;;;8.98;;
42988;SDS011;28622;43.716;20.668;2023-03-19T05:43:20;23.75;;;11.43;;
42988;SDS011;28622;43.716;20.668;2023-03-19T05:45:50;19.83;;;8.07;;
42988;SDS011;28622;43.716;20.668;2023-03-19T05:48:17;15.05;;;6.55;;
42988;SDS011;28622;43.716;20.668;2023-03-19T05:50:42;13.38;;;5.85;;
42988;SDS011;28622;43.716;20.668;2023-03-19T05:53:08;12.38;;;5.60;;
42988;SDS011;28622;43.716;20.668;2023-03-19T05:55:34;8.25;;;4.60;;
42988;SDS011;28622;43.716;20.668;2023-03-19T05:57:59;26.65;;;10.98;;
42988;SDS011;28622;43.716;20.668;2023-03-19T06:00:25;24.15;;;11.00;;
42988;SDS011;28622;43.716;20.668;2023-03-19T06:02:51;12.10;;;7.13;;
42988;SDS011;28622;43.716;20.668;2023-03-19T06:05:18;45.13;;;19.17;;
42988;SDS011;28622;43.716;20.668;2023-03-19T06:07:45;29.95;;;13.57;;
42988;SDS011;28622;43.716;20.668;2023-03-19T06:10:10;19.00;;;10.13;;
42988;SDS011;28622;43.716;20.668;2023-03-19T06:12:37;21.02;;;9.35;;
42988;SDS011;28622;43.716;20.668;2023-03-19T06:15:02;18.38;;;8.02;;
42988;SDS011;28622;43.716;20.668;2023-03-19T06:17:29;24.63;;;11.70;;
42988;SDS011;28622;43.716;20.668;2023-03-19T06:19:54;24.08;;;9.75;;
42988;SDS011;28622;43.716;20.668;2023-03-19T06:22:20;57.25;;;20.08;;
42988;SDS011;28622;43.716;20.668;2023-03-19T06:24:46;20.00;;;8.38;;
42988;SDS011;28622;43.716;20.668;2023-03-19T06:27:12;18.92;;;8.52;;
42988;SDS011;28622;43.716;20.668;2023-03-19T06:29:38;20.13;;;9.85;;
42988;SDS011;28622;43.716;20.668;2023-03-19T06:32:03;20.05;;;9.48;;
42988;SDS011;28622;43.716;20.668;2023-03-19T06:34:29;33.05;;;15.35;;
42988;SDS011;28622;43.716;20.668;2023-03-19T06:36:55;19.70;;;10.48;;
42988;SDS011;28622;43.716;20.668;2023-03-19T06:39:21;23.58;;;9.05;;
42988;SDS011;28622;43.716;20.668;2023-03-19T06:41:47;12.90;;;7.28;;
42988;SDS011;28622;43.716;20.668;2023-03-19T06:44:13;21.83;;;10.05;;
42988;SDS011;28622;43.716;20.668;2023-03-19T06:46:38;17.40;;;7.53;;
42988;SDS011;28622;43.716;20.668;2023-03-19T06:49:04;16.65;;;7.55;;
42988;SDS011;28622;43.716;20.668;2023-03-19T06:51:30;13.80;;;7.50;;
42988;SDS011;28622;43.716;20.668;2023-03-19T06:53:56;15.32;;;7.65;;
42988;SDS011;28622;43.716;20.668;2023-03-19T06:56:22;19.45;;;10.07;;
42988;SDS011;28622;43.716;20.668;2023-03-19T06:58:48;15.32;;;8.32;;
42988;SDS011;28622;43.716;20.668;2023-03-19T07:01:13;21.23;;;11.32;;
42988;SDS011;28622;43.716;20.668;2023-03-19T07:03:40;16.45;;;8.02;;
42988;SDS011;28622;43.716;20.668;2023-03-19T07:06:06;8.38;;;5.25;;
42988;SDS011;28622;43.716;20.668;2023-03-19T07:08:32;10.00;;;4.80;;
42988;SDS011;28622;43.716;20.668;2023-03-19T07:11:04;11.02;;;5.05;;
42988;SDS011;28622;43.716;20.668;2023-03-19T07:13:31;12.02;;;5.60;;
42988;SDS011;28622;43.716;20.668;2023-03-19T07:15:58;10.98;;;5.78;;
42988;SDS011;28622;43.716;20.668;2023-03-19T07:18:24;11.00;;;6.07;;
42988;SDS011;28622;43.716;20.668;2023-03-19T07:20:50;14.73;;;7.00;;
42988;SDS011;28622;43.716;20.668;2023-03-19T07:23:20;9.57;;;5.15;;
42988;SDS011;28622;43.716;20.668;2023-03-19T07:25:45;7.43;;;4.38;;
42988;SDS011;28622;43.716;20.668;2023-03-19T07:28:12;29.27;;;11.85;;
42988;SDS011;28622;43.716;20.668;2023-03-19T07:30:38;13.02;;;6.13;;
42988;SDS011;28622;43.716;20.668;2023-03-19T07:33:04;12.57;;;5.97;;
42988;SDS011;28622;43.716;20.668;2023-03-19T07:35:31;14.95;;;5.18;;
42988;SDS011;28622;43.716;20.668;2023-03-19T07:37:57;10.57;;;4.80;;
42988;SDS011;28622;43.716;20.668;2023-03-19T07:40:24;13.30;;;5.97;;
42988;SDS011;28622;43.716;20.668;2023-03-19T07:42:50;9.30;;;4.57;;
42988;SDS011;28622;43.716;20.668;2023-03-19T07:45:16;17.77;;;8.73;;
42988;SDS011;28622;43.716;20.668;2023-03-19T07:47:42;17.73;;;6.53;;
42988;SDS011;28622;43.716;20.668;2023-03-19T07:50:08;12.13;;;5.50;;
42988;SDS011;28622;43.716;20.668;2023-03-19T07:52:35;12.57;;;5.15;;
42988;SDS011;28622;43.716;20.668;2023-03-19T07:55:01;12.15;;;5.90;;
42988;SDS011;28622;43.716;20.668;2023-03-19T07:57:27;12.88;;;5.45;;
42988;SDS011;28622;43.716;20.668;2023-03-19T07:59:53;11.68;;;5.35;;
42988;SDS011;28622;43.716;20.668;2023-03-19T08:02:19;11.38;;;6.45;;
42988;SDS011;28622;43.716;20.668;2023-03-19T08:04:45;10.48;;;4.50;;
42988;SDS011;28622;43.716;20.668;2023-03-19T08:07:10;9.18;;;3.67;;
42988;SDS011;28622;43.716;20.668;2023-03-19T08:09:37;7.20;;;4.03;;
42988;SDS011;28622;43.716;20.668;2023-03-19T08:12:04;5.90;;;3.58;;
42988;SDS011;28622;43.716;20.668;2023-03-19T08:14:31;10.10;;;4.32;;
42988;SDS011;28622;43.716;20.668;2023-03-19T08:16:58;11.82;;;4.43;;
42988;SDS011;28622;43.716;20.668;2023-03-19T08:19:24;6.50;;;4.10;;
42988;SDS011;28622;43.716;20.668;2023-03-19T08:21:50;8.65;;;3.90;;
42988;SDS011;28622;43.716;20.668;2023-03-19T08:24:16;10.68;;;5.43;;
42988;SDS011;28622;43.716;20.668;2023-03-19T08:26:42;6.55;;;3.60;;
42988;SDS011;28622;43.716;20.668;2023-03-19T08:29:08;6.22;;;3.13;;
42988;SDS011;28622;43.716;20.668;2023-03-19T08:31:34;6.75;;;3.45;;
42988;SDS011;28622;43.716;20.668;2023-03-19T08:34:00;7.45;;;3.50;;
42988;SDS011;28622;43.716;20.668;2023-03-19T08:36:28;4.53;;;3.20;;
42988;SDS011;28622;43.716;20.668;2023-03-19T08:38:54;5.97;;;3.35;;
42988;SDS011;28622;43.716;20.668;2023-03-19T08:41:21;11.45;;;6.78;;
42988;SDS011;28622;43.716;20.668;2023-03-19T08:43:47;11.20;;;4.93;;
42988;SDS011;28622;43.716;20.668;2023-03-19T08:46:13;10.13;;;5.35;;
42988;SDS011;28622;43.716;20.668;2023-03-19T08:48:39;10.48;;;3.80;;
42988;SDS011;28622;43.716;20.668;2023-03-19T08:51:05;9.77;;;4.05;;
42988;SDS011;28622;43.716;20.668;2023-03-19T08:53:30;11.40;;;5.22;;
42988;SDS011;28622;43.716;20.668;2023-03-19T08:55:58;7.63;;;4.00;;
42988;SDS011;28622;43.716;20.668;2023-03-19T08:58:25;6.70;;;3.78;;
42988;SDS011;28622;43.716;20.668;2023-03-19T09:00:52;7.28;;;3.22;;
42988;SDS011;28622;43.716;20.668;2023-03-19T09:05:50;8.93;;;4.28;;
42988;SDS011;28622;43.716;20.668;2023-03-19T09:08:16;8.43;;;4.07;;
42988;SDS011;28622;43.716;20.668;2023-03-19T09:10:41;9.77;;;3.88;;
42988;SDS011;28622;43.716;20.668;2023-03-19T09:13:07;6.80;;;3.60;;
42988;SDS011;28622;43.716;20.668;2023-03-19T09:15:33;7.82;;;3.58;;
42988;SDS011;28622;43.716;20.668;2023-03-19T09:17:58;11.70;;;3.78;;
42988;SDS011;28622;43.716;20.668;2023-03-19T09:20:24;9.80;;;4.82;;
42988;SDS011;28622;43.716;20.668;2023-03-19T09:22:50;4.85;;;3.13;;
42988;SDS011;28622;43.716;20.668;2023-03-19T09:25:16;9.32;;;3.30;;
42988;SDS011;28622;43.716;20.668;2023-03-19T09:27:42;5.30;;;3.08;;
42988;SDS011;28622;43.716;20.668;2023-03-19T09:30:08;6.57;;;3.08;;
42988;SDS011;28622;43.716;20.668;2023-03-19T09:32:34;5.47;;;2.85;;
42988;SDS011;28622;43.716;20.668;2023-03-19T09:35:00;7.72;;;4.35;;
42988;SDS011;28622;43.716;20.668;2023-03-19T09:37:26;14.20;;;4.47;;
42988;SDS011;28622;43.716;20.668;2023-03-19T09:39:52;5.70;;;2.70;;
42988;SDS011;28622;43.716;20.668;2023-03-19T09:42:26;6.03;;;2.88;;
42988;SDS011;28622;43.716;20.668;2023-03-19T09:45:15;6.10;;;2.13;;
42988;SDS011;28622;43.716;20.668;2023-03-19T09:47:43;5.15;;;2.78;;
42988;SDS011;28622;43.716;20.668;2023-03-19T09:50:15;5.15;;;2.72;;
42988;SDS011;28622;43.716;20.668;2023-03-19T09:55:50;4.93;;;2.30;;
42988;SDS011;28622;43.716;20.668;2023-03-19T09:58:19;5.28;;;2.60;;
42988;SDS011;28622;43.716;20.668;2023-03-19T10:01:00;6.82;;;2.58;;
42988;SDS011;28622;43.716;20.668;2023-03-19T10:11:29;7.40;;;2.55;;
42988;SDS011;28622;43.716;20.668;2023-03-19T10:14:06;8.93;;;3.45;;
42988;SDS011;28622;43.716;20.668;2023-03-19T10:16:34;4.78;;;2.17;;
42988;SDS011;28622;43.716;20.668;2023-03-19T10:19:04;3.90;;;2.13;;
42988;SDS011;28622;43.716;20.668;2023-03-19T10:21:35;2.70;;;1.60;;
42988;SDS011;28622;43.716;20.668;2023-03-19T10:24:30;4.43;;;2.20;;
42988;SDS011;28622;43.716;20.668;2023-03-19T10:27:03;4.68;;;2.30;;
42988;SDS011;28622;43.716;20.668;2023-03-19T10:29:40;3.97;;;2.03;;
42988;SDS011;28622;43.716;20.668;2023-03-19T10:32:11;3.53;;;2.08;;
42988;SDS011;28622;43.716;20.668;2023-03-19T10:34:48;16.33;;;6.35;;
42988;SDS011;28622;43.716;20.668;2023-03-19T10:39:44;1.63;;;1.20;;
42988;SDS011;28622;43.716;20.668;2023-03-19T10:48:00;3.53;;;1.67;;
42988;SDS011;28622;43.716;20.668;2023-03-19T10:50:35;2.28;;;1.23;;
42988;SDS011;28622;43.716;20.668;2023-03-19T10:53:20;3.85;;;1.88;;
42988;SDS011;28622;43.716;20.668;2023-03-19T10:58:25;2.33;;;1.58;;
42988;SDS011;28622;43.716;20.668;2023-03-19T11:01:11;2.92;;;1.58;;
42988;SDS011;28622;43.716;20.668;2023-03-19T11:03:38;2.53;;;1.65;;
42988;SDS011;28622;43.716;20.668;2023-03-19T11:09:00;3.20;;;1.52;;
42988;SDS011;28622;43.716;20.668;2023-03-19T11:11:52;2.88;;;1.40;;
42988;SDS011;28622;43.716;20.668;2023-03-19T11:14:24;3.78;;;1.88;;
42988;SDS011;28622;43.716;20.668;2023-03-19T11:16:57;5.72;;;1.58;;
42988;SDS011;28622;43.716;20.668;2023-03-19T11:19:28;3.78;;;1.58;;
42988;SDS011;28622;43.716;20.668;2023-03-19T11:24:37;2.28;;;1.52;;
42988;SDS011;28622;43.716;20.668;2023-03-19T11:27:04;4.60;;;1.95;;
42988;SDS011;28622;43.716;20.668;2023-03-19T11:29:30;4.82;;;1.95;;
42988;SDS011;28622;43.716;20.668;2023-03-19T11:40:02;4.07;;;1.63;;
42988;SDS011;28622;43.716;20.668;2023-03-19T11:45:31;4.15;;;1.70;;
42988;SDS011;28622;43.716;20.668;2023-03-19T11:50:59;4.47;;;2.03;;
42988;SDS011;28622;43.716;20.668;2023-03-19T12:04:44;3.63;;;1.83;;
42988;SDS011;28622;43.716;20.668;2023-03-19T12:12:50;3.13;;;1.88;;
42988;SDS011;28622;43.716;20.668;2023-03-19T12:15:25;3.90;;;2.22;;
42988;SDS011;28622;43.716;20.668;2023-03-19T12:26:18;3.50;;;1.75;;
42988;SDS011;28622;43.716;20.668;2023-03-19T12:28:48;3.42;;;2.03;;
42988;SDS011;28622;43.716;20.668;2023-03-19T12:32:35;7.22;;;2.35;;
42988;SDS011;28622;43.716;20.668;2023-03-19T12:37:07;6.82;;;2.30;;
42988;SDS011;28622;43.716;20.668;2023-03-19T12:39:53;3.95;;;2.28;;
42988;SDS011;28622;43.716;20.668;2023-03-19T12:42:41;8.93;;;3.15;;
42988;SDS011;28622;43.716;20.668;2023-03-19T12:45:24;2.28;;;1.52;;
42988;SDS011;28622;43.716;20.668;2023-03-19T12:48:20;5.07;;;2.00;;
42988;SDS011;28622;43.716;20.668;2023-03-19T12:50:51;3.70;;;2.15;;
42988;SDS011;28622;43.716;20.668;2023-03-19T12:53:25;5.15;;;2.30;;
42988;SDS011;28622;43.716;20.668;2023-03-19T12:56:01;3.58;;;2.38;;
42988;SDS011;28622;43.716;20.668;2023-03-19T13:01:26;2.75;;;1.35;;
42988;SDS011;28622;43.716;20.668;2023-03-19T13:07:10;4.60;;;2.08;;
42988;SDS011;28622;43.716;20.668;2023-03-19T13:12:33;3.13;;;1.52;;
42988;SDS011;28622;43.716;20.668;2023-03-19T13:15:12;2.88;;;0.98;;
42988;SDS011;28622;43.716;20.668;2023-03-19T13:21:15;2.97;;;1.58;;
42988;SDS011;28622;43.716;20.668;2023-03-19T13:23:44;2.90;;;1.50;;
42988;SDS011;28622;43.716;20.668;2023-03-19T13:26:13;4.38;;;1.65;;
42988;SDS011;28622;43.716;20.668;2023-03-19T13:31:45;3.88;;;2.20;;
42988;SDS011;28622;43.716;20.668;2023-03-19T13:36:41;4.88;;;2.95;;
42988;SDS011;28622;43.716;20.668;2023-03-19T13:39:19;6.32;;;2.60;;
42988;SDS011;28622;43.716;20.668;2023-03-19T13:46:56;4.53;;;1.45;;
42988;SDS011;28622;43.716;20.668;2023-03-19T13:49:27;4.20;;;1.73;;
42988;SDS011;28622;43.716;20.668;2023-03-19T13:52:02;4.78;;;1.60;;
42988;SDS011;28622;43.716;20.668;2023-03-19T13:54:46;5.07;;;1.48;;
42988;SDS011;28622;43.716;20.668;2023-03-19T13:57:21;2.83;;;1.40;;
42988;SDS011;28622;43.716;20.668;2023-03-19T13:59:57;2.42;;;1.48;;
42988;SDS011;28622;43.716;20.668;2023-03-19T14:03:01;6.15;;;2.03;;
42988;SDS011;28622;43.716;20.668;2023-03-19T14:05:32;5.28;;;2.00;;
42988;SDS011;28622;43.716;20.668;2023-03-19T14:08:00;6.60;;;2.67;;
42988;SDS011;28622;43.716;20.668;2023-03-19T14:10:44;9.77;;;4.25;;
42988;SDS011;28622;43.716;20.668;2023-03-19T14:13:16;6.47;;;2.88;;
42988;SDS011;28622;43.716;20.668;2023-03-19T14:15:50;8.60;;;4.05;;
42988;SDS011;28622;43.716;20.668;2023-03-19T14:18:17;2.78;;;1.70;;
42988;SDS011;28622;43.716;20.668;2023-03-19T14:20:50;3.33;;;1.55;;
42988;SDS011;28622;43.716;20.668;2023-03-19T14:23:26;3.55;;;1.40;;
42988;SDS011;28622;43.716;20.668;2023-03-19T14:31:20;3.90;;;2.08;;
42988;SDS011;28622;43.716;20.668;2023-03-19T14:39:40;7.60;;;2.42;;
42988;SDS011;28622;43.716;20.668;2023-03-19T14:42:19;6.30;;;2.38;;
42988;SDS011;28622;43.716;20.668;2023-03-19T14:50:57;3.60;;;2.17;;
42988;SDS011;28622;43.716;20.668;2023-03-19T14:56:20;2.45;;;1.42;;
42988;SDS011;28622;43.716;20.668;2023-03-19T14:58:57;5.35;;;2.47;;
42988;SDS011;28622;43.716;20.668;2023-03-19T15:01:30;7.30;;;2.03;;
42988;SDS011;28622;43.716;20.668;2023-03-19T15:04:03;6.18;;;2.20;;
42988;SDS011;28622;43.716;20.668;2023-03-19T15:06:33;4.40;;;2.20;;
42988;SDS011;28622;43.716;20.668;2023-03-19T15:09:04;4.60;;;2.55;;
42988;SDS011;28622;43.716;20.668;2023-03-19T15:11:35;6.78;;;3.10;;
42988;SDS011;28622;43.716;20.668;2023-03-19T15:19:36;10.50;;;3.55;;
42988;SDS011;28622;43.716;20.668;2023-03-19T15:22:14;6.00;;;2.95;;
42988;SDS011;28622;43.716;20.668;2023-03-19T15:24:43;9.77;;;3.40;;
42988;SDS011;28622;43.716;20.668;2023-03-19T15:27:23;5.43;;;2.15;;
42988;SDS011;28622;43.716;20.668;2023-03-19T15:29:50;6.82;;;2.53;;
42988;SDS011;28622;43.716;20.668;2023-03-19T15:32:36;7.10;;;2.72;;
42988;SDS011;28622;43.716;20.668;2023-03-19T15:35:06;8.40;;;3.70;;
42988;SDS011;28622;43.716;20.668;2023-03-19T15:37:34;4.55;;;2.70;;
42988;SDS011;28622;43.716;20.668;2023-03-19T15:40:05;8.85;;;3.83;;
42988;SDS011;28622;43.716;20.668;2023-03-19T15:42:36;10.70;;;4.75;;
42988;SDS011;28622;43.716;20.668;2023-03-19T15:45:07;9.48;;;4.30;;
42988;SDS011;28622;43.716;20.668;2023-03-19T15:47:36;8.95;;;4.18;;
42988;SDS011;28622;43.716;20.668;2023-03-19T15:50:13;7.68;;;3.42;;
42988;SDS011;28622;43.716;20.668;2023-03-19T15:52:41;9.98;;;4.53;;
42988;SDS011;28622;43.716;20.668;2023-03-19T15:55:15;10.02;;;4.97;;
42988;SDS011;28622;43.716;20.668;2023-03-19T15:57:41;10.23;;;5.05;;
42988;SDS011;28622;43.716;20.668;2023-03-19T16:00:09;13.82;;;5.13;;
42988;SDS011;28622;43.716;20.668;2023-03-19T16:02:45;11.45;;;5.35;;
42988;SDS011;28622;43.716;20.668;2023-03-19T16:05:26;9.05;;;4.75;;
42988;SDS011;28622;43.716;20.668;2023-03-19T16:07:56;9.45;;;5.03;;
42988;SDS011;28622;43.716;20.668;2023-03-19T16:12:53;17.27;;;6.85;;
42988;SDS011;28622;43.716;20.668;2023-03-19T16:17:48;13.65;;;5.85;;
42988;SDS011;28622;43.716;20.668;2023-03-19T16:20:14;14.02;;;5.72;;
42988;SDS011;28622;43.716;20.668;2023-03-19T16:22:41;15.15;;;6.53;;
42988;SDS011;28622;43.716;20.668;2023-03-19T16:25:13;14.35;;;8.00;;
42988;SDS011;28622;43.716;20.668;2023-03-19T16:27:44;23.60;;;8.82;;
42988;SDS011;28622;43.716;20.668;2023-03-19T16:30:15;17.08;;;8.50;;
42988;SDS011;28622;43.716;20.668;2023-03-19T16:32:59;15.63;;;7.85;;
42988;SDS011;28622;43.716;20.668;2023-03-19T16:35:30;18.85;;;7.55;;
42988;SDS011;28622;43.716;20.668;2023-03-19T16:38:14;22.65;;;8.57;;
42988;SDS011;28622;43.716;20.668;2023-03-19T16:40:49;19.38;;;9.05;;
42988;SDS011;28622;43.716;20.668;2023-03-19T16:43:35;14.40;;;8.32;;
42988;SDS011;28622;43.716;20.668;2023-03-19T16:46:05;21.48;;;8.60;;
42988;SDS011;28622;43.716;20.668;2023-03-19T16:48:36;21.23;;;9.48;;